sensor_id;sensor_type;location;lat;lon;timestamp;P1;durP1;ratioP1;P2;durP2;ratioP2
17052;SDS011;8643;48.824;11.422;2023-02-12T00:01:38;38.93;;;18.40;;
17052;SDS011;8643;48.824;11.422;2023-02-12T00:04:07;36.93;;;18.03;;
17052;SDS011;8643;48.824;11.422;2023-02-12T00:06:38;35.63;;;17.73;;
17052;SDS011;8643;48.824;11.422;2023-02-12T00:09:06;36.03;;;19.30;;
17052;SDS011;8643;48.824;11.422;2023-02-12T00:11:35;37.87;;;18.47;;
17052;SDS011;8643;48.824;11.422;2023-02-12T00:14:03;37.70;;;19.03;;
17052;SDS011;8643;48.824;11.422;2023-02-12T00:16:32;40.00;;;19.60;;
17052;SDS011;8643;48.824;11.422;2023-02-12T00:19:00;41.60;;;19.00;;
17052;SDS011;8643;48.824;11.422;2023-02-12T00:21:28;39.17;;;19.50;;
17052;SDS011;8643;48.824;11.422;2023-02-12T00:23:58;42.20;;;20.27;;
17052;SDS011;8643;48.824;11.422;2023-02-12T00:26:26;37.77;;;19.30;;
17052;SDS011;8643;48.824;11.422;2023-02-12T00:28:55;37.20;;;18.90;;
17052;SDS011;8643;48.824;11.422;2023-02-12T00:31:24;37.40;;;18.57;;
17052;SDS011;8643;48.824;11.422;2023-02-12T00:33:55;35.73;;;18.07;;
17052;SDS011;8643;48.824;11.422;2023-02-12T00:36:26;37.57;;;18.30;;
17052;SDS011;8643;48.824;11.422;2023-02-12T00:39:02;35.97;;;17.93;;
17052;SDS011;8643;48.824;11.422;2023-02-12T00:41:31;35.63;;;17.93;;
17052;SDS011;8643;48.824;11.422;2023-02-12T00:43:59;35.27;;;18.13;;
17052;SDS011;8643;48.824;11.422;2023-02-12T00:46:28;34.17;;;17.20;;
17052;SDS011;8643;48.824;11.422;2023-02-12T00:48:57;38.30;;;17.57;;
17052;SDS011;8643;48.824;11.422;2023-02-12T00:51:25;40.17;;;19.83;;
17052;SDS011;8643;48.824;11.422;2023-02-12T00:53:53;37.83;;;18.90;;
17052;SDS011;8643;48.824;11.422;2023-02-12T00:56:24;39.57;;;18.13;;
17052;SDS011;8643;48.824;11.422;2023-02-12T00:58:52;37.40;;;18.93;;
17052;SDS011;8643;48.824;11.422;2023-02-12T01:01:21;37.07;;;18.30;;
17052;SDS011;8643;48.824;11.422;2023-02-12T01:03:50;42.40;;;20.07;;
17052;SDS011;8643;48.824;11.422;2023-02-12T01:06:18;36.77;;;18.50;;
17052;SDS011;8643;48.824;11.422;2023-02-12T01:08:48;35.47;;;18.10;;
17052;SDS011;8643;48.824;11.422;2023-02-12T01:11:18;38.63;;;18.70;;
17052;SDS011;8643;48.824;11.422;2023-02-12T01:13:48;38.23;;;18.97;;
17052;SDS011;8643;48.824;11.422;2023-02-12T01:16:17;40.63;;;19.50;;
17052;SDS011;8643;48.824;11.422;2023-02-12T01:18:48;38.83;;;18.23;;
17052;SDS011;8643;48.824;11.422;2023-02-12T01:21:22;38.93;;;18.83;;
17052;SDS011;8643;48.824;11.422;2023-02-12T01:23:53;38.77;;;18.80;;
17052;SDS011;8643;48.824;11.422;2023-02-12T01:26:22;39.57;;;18.93;;
17052;SDS011;8643;48.824;11.422;2023-02-12T01:28:54;41.93;;;20.27;;
17052;SDS011;8643;48.824;11.422;2023-02-12T01:31:27;46.07;;;20.90;;
17052;SDS011;8643;48.824;11.422;2023-02-12T01:34:00;45.30;;;20.07;;
17052;SDS011;8643;48.824;11.422;2023-02-12T01:36:28;43.00;;;20.47;;
17052;SDS011;8643;48.824;11.422;2023-02-12T01:38:58;43.03;;;20.17;;
17052;SDS011;8643;48.824;11.422;2023-02-12T01:41:30;41.87;;;19.97;;
17052;SDS011;8643;48.824;11.422;2023-02-12T01:44:14;41.43;;;19.57;;
17052;SDS011;8643;48.824;11.422;2023-02-12T01:46:47;43.63;;;19.10;;
17052;SDS011;8643;48.824;11.422;2023-02-12T01:49:21;38.97;;;19.73;;
17052;SDS011;8643;48.824;11.422;2023-02-12T01:51:58;42.40;;;19.03;;
17052;SDS011;8643;48.824;11.422;2023-02-12T01:54:33;35.80;;;17.67;;
17052;SDS011;8643;48.824;11.422;2023-02-12T01:57:04;41.20;;;18.40;;
17052;SDS011;8643;48.824;11.422;2023-02-12T01:59:37;40.90;;;19.57;;
17052;SDS011;8643;48.824;11.422;2023-02-12T02:02:09;42.10;;;20.37;;
17052;SDS011;8643;48.824;11.422;2023-02-12T02:04:41;40.37;;;20.70;;
17052;SDS011;8643;48.824;11.422;2023-02-12T02:07:15;40.50;;;20.10;;
17052;SDS011;8643;48.824;11.422;2023-02-12T02:09:43;36.90;;;18.90;;
17052;SDS011;8643;48.824;11.422;2023-02-12T02:12:13;42.53;;;19.53;;
17052;SDS011;8643;48.824;11.422;2023-02-12T02:15:00;41.00;;;19.43;;
17052;SDS011;8643;48.824;11.422;2023-02-12T02:17:37;36.87;;;18.73;;
17052;SDS011;8643;48.824;11.422;2023-02-12T02:23:38;42.97;;;19.90;;
17052;SDS011;8643;48.824;11.422;2023-02-12T02:27:19;42.50;;;20.03;;
17052;SDS011;8643;48.824;11.422;2023-02-12T02:33:04;41.53;;;19.73;;
17052;SDS011;8643;48.824;11.422;2023-02-12T02:35:51;41.23;;;19.23;;
17052;SDS011;8643;48.824;11.422;2023-02-12T02:38:30;39.20;;;19.20;;
17052;SDS011;8643;48.824;11.422;2023-02-12T02:41:08;40.90;;;20.00;;
17052;SDS011;8643;48.824;11.422;2023-02-12T02:43:45;38.90;;;19.17;;
17052;SDS011;8643;48.824;11.422;2023-02-12T02:46:19;40.90;;;19.30;;
17052;SDS011;8643;48.824;11.422;2023-02-12T02:48:57;38.33;;;19.00;;
17052;SDS011;8643;48.824;11.422;2023-02-12T02:51:30;39.53;;;18.03;;
17052;SDS011;8643;48.824;11.422;2023-02-12T02:54:06;38.80;;;19.13;;
17052;SDS011;8643;48.824;11.422;2023-02-12T02:56:40;43.03;;;20.20;;
17052;SDS011;8643;48.824;11.422;2023-02-12T02:59:13;46.17;;;22.00;;
17052;SDS011;8643;48.824;11.422;2023-02-12T03:01:50;41.83;;;19.63;;
17052;SDS011;8643;48.824;11.422;2023-02-12T03:04:27;42.27;;;20.10;;
17052;SDS011;8643;48.824;11.422;2023-02-12T03:07:02;44.40;;;21.03;;
17052;SDS011;8643;48.824;11.422;2023-02-12T03:09:39;43.30;;;21.63;;
17052;SDS011;8643;48.824;11.422;2023-02-12T03:12:14;45.27;;;21.40;;
17052;SDS011;8643;48.824;11.422;2023-02-12T03:14:55;43.93;;;21.47;;
17052;SDS011;8643;48.824;11.422;2023-02-12T03:17:36;44.53;;;20.70;;
17052;SDS011;8643;48.824;11.422;2023-02-12T03:20:12;43.07;;;21.17;;
17052;SDS011;8643;48.824;11.422;2023-02-12T03:22:47;44.00;;;21.07;;
17052;SDS011;8643;48.824;11.422;2023-02-12T03:25:22;42.17;;;20.33;;
17052;SDS011;8643;48.824;11.422;2023-02-12T03:28:00;43.23;;;21.03;;
17052;SDS011;8643;48.824;11.422;2023-02-12T03:30:37;44.20;;;20.97;;
17052;SDS011;8643;48.824;11.422;2023-02-12T03:33:18;43.13;;;20.40;;
17052;SDS011;8643;48.824;11.422;2023-02-12T03:35:57;42.43;;;20.63;;
17052;SDS011;8643;48.824;11.422;2023-02-12T03:38:34;40.53;;;19.77;;
17052;SDS011;8643;48.824;11.422;2023-02-12T03:41:09;43.33;;;20.43;;
17052;SDS011;8643;48.824;11.422;2023-02-12T03:43:47;43.77;;;20.50;;
17052;SDS011;8643;48.824;11.422;2023-02-12T03:46:23;41.70;;;20.57;;
17052;SDS011;8643;48.824;11.422;2023-02-12T03:49:10;42.70;;;20.57;;
17052;SDS011;8643;48.824;11.422;2023-02-12T03:51:50;39.63;;;20.20;;
17052;SDS011;8643;48.824;11.422;2023-02-12T03:54:19;41.83;;;20.67;;
17052;SDS011;8643;48.824;11.422;2023-02-12T03:56:50;48.97;;;21.67;;
17052;SDS011;8643;48.824;11.422;2023-02-12T03:59:24;45.97;;;21.97;;
17052;SDS011;8643;48.824;11.422;2023-02-12T04:01:53;43.83;;;21.27;;
17052;SDS011;8643;48.824;11.422;2023-02-12T04:04:27;46.47;;;23.33;;
17052;SDS011;8643;48.824;11.422;2023-02-12T04:06:57;47.50;;;22.37;;
17052;SDS011;8643;48.824;11.422;2023-02-12T04:09:26;48.83;;;23.03;;
17052;SDS011;8643;48.824;11.422;2023-02-12T04:12:00;41.07;;;20.90;;
17052;SDS011;8643;48.824;11.422;2023-02-12T04:14:54;47.80;;;23.27;;
17052;SDS011;8643;48.824;11.422;2023-02-12T04:17:44;44.23;;;20.83;;
17052;SDS011;8643;48.824;11.422;2023-02-12T04:20:25;43.53;;;22.13;;
17052;SDS011;8643;48.824;11.422;2023-02-12T04:23:07;48.27;;;22.93;;
17052;SDS011;8643;48.824;11.422;2023-02-12T04:25:51;51.53;;;22.47;;
17052;SDS011;8643;48.824;11.422;2023-02-12T04:28:38;49.50;;;22.60;;
17052;SDS011;8643;48.824;11.422;2023-02-12T04:31:19;47.97;;;21.93;;
17052;SDS011;8643;48.824;11.422;2023-02-12T04:34:01;45.10;;;23.07;;
17052;SDS011;8643;48.824;11.422;2023-02-12T04:36:43;45.70;;;22.60;;
17052;SDS011;8643;48.824;11.422;2023-02-12T04:39:21;50.50;;;23.87;;
17052;SDS011;8643;48.824;11.422;2023-02-12T04:41:57;46.37;;;23.33;;
17052;SDS011;8643;48.824;11.422;2023-02-12T04:44:30;48.80;;;23.57;;
17052;SDS011;8643;48.824;11.422;2023-02-12T04:47:00;47.27;;;23.03;;
17052;SDS011;8643;48.824;11.422;2023-02-12T04:49:29;45.87;;;23.17;;
17052;SDS011;8643;48.824;11.422;2023-02-12T04:51:59;48.20;;;23.00;;
17052;SDS011;8643;48.824;11.422;2023-02-12T04:54:27;49.80;;;24.23;;
17052;SDS011;8643;48.824;11.422;2023-02-12T04:56:55;50.13;;;24.53;;
17052;SDS011;8643;48.824;11.422;2023-02-12T04:59:24;49.47;;;23.47;;
17052;SDS011;8643;48.824;11.422;2023-02-12T05:01:52;51.77;;;24.87;;
17052;SDS011;8643;48.824;11.422;2023-02-12T05:04:21;49.13;;;24.17;;
17052;SDS011;8643;48.824;11.422;2023-02-12T05:06:49;45.83;;;24.17;;
17052;SDS011;8643;48.824;11.422;2023-02-12T05:09:19;47.23;;;24.10;;
17052;SDS011;8643;48.824;11.422;2023-02-12T05:11:48;49.83;;;24.20;;
17052;SDS011;8643;48.824;11.422;2023-02-12T05:14:16;48.37;;;23.77;;
17052;SDS011;8643;48.824;11.422;2023-02-12T05:16:45;49.80;;;23.73;;
17052;SDS011;8643;48.824;11.422;2023-02-12T05:19:13;45.13;;;23.07;;
17052;SDS011;8643;48.824;11.422;2023-02-12T05:21:42;48.23;;;23.27;;
17052;SDS011;8643;48.824;11.422;2023-02-12T05:24:10;45.20;;;23.30;;
17052;SDS011;8643;48.824;11.422;2023-02-12T05:26:40;46.97;;;23.30;;
17052;SDS011;8643;48.824;11.422;2023-02-12T05:29:08;51.43;;;24.03;;
17052;SDS011;8643;48.824;11.422;2023-02-12T05:31:37;49.97;;;23.90;;
17052;SDS011;8643;48.824;11.422;2023-02-12T05:34:06;41.33;;;22.47;;
17052;SDS011;8643;48.824;11.422;2023-02-12T05:36:41;46.17;;;22.97;;
17052;SDS011;8643;48.824;11.422;2023-02-12T05:39:09;47.17;;;23.43;;
17052;SDS011;8643;48.824;11.422;2023-02-12T05:41:39;45.47;;;22.70;;
17052;SDS011;8643;48.824;11.422;2023-02-12T05:44:07;46.43;;;23.80;;
17052;SDS011;8643;48.824;11.422;2023-02-12T05:46:41;45.47;;;22.87;;
17052;SDS011;8643;48.824;11.422;2023-02-12T05:49:11;47.33;;;23.67;;
17052;SDS011;8643;48.824;11.422;2023-02-12T05:51:40;47.00;;;24.13;;
17052;SDS011;8643;48.824;11.422;2023-02-12T05:54:08;49.57;;;23.30;;
17052;SDS011;8643;48.824;11.422;2023-02-12T05:56:41;44.53;;;22.70;;
17052;SDS011;8643;48.824;11.422;2023-02-12T05:59:14;42.40;;;21.83;;
17052;SDS011;8643;48.824;11.422;2023-02-12T06:01:45;48.10;;;22.50;;
17052;SDS011;8643;48.824;11.422;2023-02-12T06:04:17;50.10;;;24.80;;
17052;SDS011;8643;48.824;11.422;2023-02-12T06:06:47;44.27;;;22.10;;
17052;SDS011;8643;48.824;11.422;2023-02-12T06:09:15;52.83;;;24.73;;
17052;SDS011;8643;48.824;11.422;2023-02-12T06:11:45;49.20;;;24.17;;
17052;SDS011;8643;48.824;11.422;2023-02-12T06:14:14;52.40;;;25.30;;
17052;SDS011;8643;48.824;11.422;2023-02-12T06:16:45;53.87;;;25.37;;
17052;SDS011;8643;48.824;11.422;2023-02-12T06:19:16;55.83;;;26.00;;
17052;SDS011;8643;48.824;11.422;2023-02-12T06:21:46;50.93;;;24.03;;
17052;SDS011;8643;48.824;11.422;2023-02-12T06:24:15;47.17;;;23.53;;
17052;SDS011;8643;48.824;11.422;2023-02-12T06:26:44;54.80;;;25.23;;
17052;SDS011;8643;48.824;11.422;2023-02-12T06:29:16;45.97;;;24.17;;
17052;SDS011;8643;48.824;11.422;2023-02-12T06:31:45;51.27;;;24.70;;
17052;SDS011;8643;48.824;11.422;2023-02-12T06:34:14;52.60;;;24.03;;
17052;SDS011;8643;48.824;11.422;2023-02-12T06:36:44;48.30;;;24.53;;
17052;SDS011;8643;48.824;11.422;2023-02-12T06:39:15;50.17;;;24.80;;
17052;SDS011;8643;48.824;11.422;2023-02-12T06:41:45;50.37;;;24.90;;
17052;SDS011;8643;48.824;11.422;2023-02-12T06:44:14;49.40;;;23.50;;
17052;SDS011;8643;48.824;11.422;2023-02-12T06:46:42;48.03;;;22.57;;
17052;SDS011;8643;48.824;11.422;2023-02-12T06:49:11;55.07;;;24.67;;
17052;SDS011;8643;48.824;11.422;2023-02-12T06:51:41;49.37;;;23.77;;
17052;SDS011;8643;48.824;11.422;2023-02-12T06:54:13;45.43;;;22.93;;
17052;SDS011;8643;48.824;11.422;2023-02-12T06:56:49;49.43;;;24.73;;
17052;SDS011;8643;48.824;11.422;2023-02-12T06:59:17;53.23;;;23.80;;
17052;SDS011;8643;48.824;11.422;2023-02-12T07:01:46;50.77;;;25.30;;
17052;SDS011;8643;48.824;11.422;2023-02-12T07:04:15;56.43;;;25.27;;
17052;SDS011;8643;48.824;11.422;2023-02-12T07:06:43;55.23;;;25.53;;
17052;SDS011;8643;48.824;11.422;2023-02-12T07:09:12;53.40;;;25.07;;
17052;SDS011;8643;48.824;11.422;2023-02-12T07:11:44;50.93;;;24.07;;
17052;SDS011;8643;48.824;11.422;2023-02-12T07:14:18;52.70;;;25.03;;
17052;SDS011;8643;48.824;11.422;2023-02-12T07:16:50;65.60;;;32.03;;
17052;SDS011;8643;48.824;11.422;2023-02-12T07:19:23;64.33;;;30.40;;
17052;SDS011;8643;48.824;11.422;2023-02-12T07:21:52;78.60;;;34.87;;
17052;SDS011;8643;48.824;11.422;2023-02-12T07:24:20;80.73;;;36.90;;
17052;SDS011;8643;48.824;11.422;2023-02-12T07:26:49;76.33;;;34.80;;
17052;SDS011;8643;48.824;11.422;2023-02-12T07:29:18;76.33;;;36.37;;
17052;SDS011;8643;48.824;11.422;2023-02-12T07:31:50;75.10;;;35.37;;
17052;SDS011;8643;48.824;11.422;2023-02-12T07:34:20;69.50;;;32.90;;
17052;SDS011;8643;48.824;11.422;2023-02-12T07:36:48;72.33;;;33.73;;
17052;SDS011;8643;48.824;11.422;2023-02-12T07:39:16;66.93;;;32.47;;
17052;SDS011;8643;48.824;11.422;2023-02-12T07:41:44;67.77;;;33.20;;
17052;SDS011;8643;48.824;11.422;2023-02-12T07:44:13;69.70;;;33.13;;
17052;SDS011;8643;48.824;11.422;2023-02-12T07:46:43;62.87;;;29.43;;
17052;SDS011;8643;48.824;11.422;2023-02-12T07:49:15;59.73;;;29.63;;
17052;SDS011;8643;48.824;11.422;2023-02-12T07:51:49;57.73;;;29.63;;
17052;SDS011;8643;48.824;11.422;2023-02-12T07:54:17;59.37;;;29.90;;
17052;SDS011;8643;48.824;11.422;2023-02-12T07:56:49;60.47;;;28.87;;
17052;SDS011;8643;48.824;11.422;2023-02-12T07:59:17;57.23;;;28.07;;
17052;SDS011;8643;48.824;11.422;2023-02-12T08:01:49;55.60;;;27.73;;
17052;SDS011;8643;48.824;11.422;2023-02-12T08:04:20;60.43;;;27.63;;
17052;SDS011;8643;48.824;11.422;2023-02-12T08:06:51;56.43;;;27.50;;
17052;SDS011;8643;48.824;11.422;2023-02-12T08:09:22;57.90;;;29.47;;
17052;SDS011;8643;48.824;11.422;2023-02-12T08:11:53;53.53;;;27.20;;
17052;SDS011;8643;48.824;11.422;2023-02-12T08:14:22;61.77;;;28.63;;
17052;SDS011;8643;48.824;11.422;2023-02-12T08:16:51;53.13;;;27.20;;
17052;SDS011;8643;48.824;11.422;2023-02-12T08:19:21;54.33;;;27.37;;
17052;SDS011;8643;48.824;11.422;2023-02-12T08:21:52;60.63;;;28.67;;
17052;SDS011;8643;48.824;11.422;2023-02-12T08:24:22;51.70;;;26.93;;
17052;SDS011;8643;48.824;11.422;2023-02-12T08:26:51;104.57;;;44.10;;
17052;SDS011;8643;48.824;11.422;2023-02-12T08:29:21;60.50;;;28.40;;
17052;SDS011;8643;48.824;11.422;2023-02-12T08:31:55;62.73;;;27.63;;
17052;SDS011;8643;48.824;11.422;2023-02-12T08:34:26;62.60;;;27.40;;
17052;SDS011;8643;48.824;11.422;2023-02-12T08:36:57;41.17;;;17.67;;
17052;SDS011;8643;48.824;11.422;2023-02-12T08:39:27;47.50;;;18.37;;
17052;SDS011;8643;48.824;11.422;2023-02-12T08:41:57;50.00;;;21.20;;
17052;SDS011;8643;48.824;11.422;2023-02-12T08:44:27;45.63;;;20.17;;
17052;SDS011;8643;48.824;11.422;2023-02-12T08:46:58;45.70;;;20.17;;
17052;SDS011;8643;48.824;11.422;2023-02-12T08:49:27;49.43;;;21.50;;
17052;SDS011;8643;48.824;11.422;2023-02-12T08:51:57;46.23;;;21.50;;
17052;SDS011;8643;48.824;11.422;2023-02-12T08:54:28;48.40;;;21.27;;
17052;SDS011;8643;48.824;11.422;2023-02-12T08:56:58;42.47;;;19.73;;
17052;SDS011;8643;48.824;11.422;2023-02-12T08:59:29;43.60;;;19.77;;
17052;SDS011;8643;48.824;11.422;2023-02-12T09:01:59;45.23;;;19.00;;
17052;SDS011;8643;48.824;11.422;2023-02-12T09:04:29;46.57;;;19.90;;
17052;SDS011;8643;48.824;11.422;2023-02-12T09:07:01;46.47;;;20.23;;
17052;SDS011;8643;48.824;11.422;2023-02-12T09:09:30;46.53;;;19.67;;
17052;SDS011;8643;48.824;11.422;2023-02-12T09:11:58;43.80;;;19.07;;
17052;SDS011;8643;48.824;11.422;2023-02-12T09:14:31;41.87;;;17.77;;
17052;SDS011;8643;48.824;11.422;2023-02-12T09:17:00;41.00;;;17.70;;
17052;SDS011;8643;48.824;11.422;2023-02-12T09:19:29;44.07;;;18.40;;
17052;SDS011;8643;48.824;11.422;2023-02-12T09:21:57;41.87;;;17.50;;
17052;SDS011;8643;48.824;11.422;2023-02-12T09:24:26;41.23;;;16.70;;
17052;SDS011;8643;48.824;11.422;2023-02-12T09:26:54;40.17;;;17.17;;
17052;SDS011;8643;48.824;11.422;2023-02-12T09:29:26;37.47;;;16.17;;
17052;SDS011;8643;48.824;11.422;2023-02-12T09:31:55;39.23;;;16.43;;
17052;SDS011;8643;48.824;11.422;2023-02-12T09:34:26;40.17;;;17.23;;
17052;SDS011;8643;48.824;11.422;2023-02-12T09:36:54;39.33;;;15.87;;
17052;SDS011;8643;48.824;11.422;2023-02-12T09:39:22;36.40;;;15.33;;
17052;SDS011;8643;48.824;11.422;2023-02-12T09:42:06;37.90;;;16.07;;
17052;SDS011;8643;48.824;11.422;2023-02-12T09:44:55;36.90;;;15.67;;
17052;SDS011;8643;48.824;11.422;2023-02-12T09:47:38;38.70;;;16.60;;
17052;SDS011;8643;48.824;11.422;2023-02-12T09:50:25;37.23;;;16.90;;
17052;SDS011;8643;48.824;11.422;2023-02-12T09:53:00;46.17;;;18.40;;
17052;SDS011;8643;48.824;11.422;2023-02-12T09:55:30;37.37;;;17.10;;
17052;SDS011;8643;48.824;11.422;2023-02-12T09:58:01;39.50;;;17.30;;
17052;SDS011;8643;48.824;11.422;2023-02-12T10:00:39;40.03;;;16.90;;
17052;SDS011;8643;48.824;11.422;2023-02-12T10:03:11;43.33;;;15.93;;
17052;SDS011;8643;48.824;11.422;2023-02-12T10:05:46;37.63;;;16.47;;
17052;SDS011;8643;48.824;11.422;2023-02-12T10:08:25;39.87;;;16.47;;
17052;SDS011;8643;48.824;11.422;2023-02-12T10:11:24;33.97;;;14.43;;
17052;SDS011;8643;48.824;11.422;2023-02-12T10:14:13;32.60;;;13.97;;
17052;SDS011;8643;48.824;11.422;2023-02-12T10:17:04;30.97;;;13.43;;
17052;SDS011;8643;48.824;11.422;2023-02-12T10:19:49;36.30;;;14.43;;
17052;SDS011;8643;48.824;11.422;2023-02-12T10:22:49;34.13;;;14.97;;
17052;SDS011;8643;48.824;11.422;2023-02-12T10:25:35;38.03;;;15.47;;
17052;SDS011;8643;48.824;11.422;2023-02-12T10:28:18;32.10;;;13.90;;
17052;SDS011;8643;48.824;11.422;2023-02-12T10:30:54;32.50;;;15.10;;
17052;SDS011;8643;48.824;11.422;2023-02-12T10:33:27;33.40;;;14.33;;
17052;SDS011;8643;48.824;11.422;2023-02-12T10:36:08;31.67;;;13.23;;
17052;SDS011;8643;48.824;11.422;2023-02-12T10:38:52;31.47;;;13.67;;
17052;SDS011;8643;48.824;11.422;2023-02-12T10:41:26;28.57;;;13.23;;
17052;SDS011;8643;48.824;11.422;2023-02-12T10:43:59;28.57;;;13.20;;
17052;SDS011;8643;48.824;11.422;2023-02-12T10:46:28;30.00;;;13.53;;
17052;SDS011;8643;48.824;11.422;2023-02-12T10:48:57;30.60;;;13.47;;
17052;SDS011;8643;48.824;11.422;2023-02-12T10:51:35;33.13;;;15.20;;
17052;SDS011;8643;48.824;11.422;2023-02-12T10:57:12;32.37;;;14.83;;
17052;SDS011;8643;48.824;11.422;2023-02-12T10:59:46;30.63;;;14.40;;
17052;SDS011;8643;48.824;11.422;2023-02-12T11:02:22;34.10;;;15.93;;
17052;SDS011;8643;48.824;11.422;2023-02-12T11:04:54;31.17;;;14.73;;
17052;SDS011;8643;48.824;11.422;2023-02-12T11:07:26;36.73;;;15.67;;
17052;SDS011;8643;48.824;11.422;2023-02-12T11:09:56;31.10;;;15.17;;
17052;SDS011;8643;48.824;11.422;2023-02-12T11:12:27;31.70;;;14.83;;
17052;SDS011;8643;48.824;11.422;2023-02-12T11:15:02;32.53;;;14.63;;
17052;SDS011;8643;48.824;11.422;2023-02-12T11:17:41;35.97;;;16.43;;
17052;SDS011;8643;48.824;11.422;2023-02-12T11:20:23;32.00;;;15.20;;
17052;SDS011;8643;48.824;11.422;2023-02-12T11:22:56;27.57;;;15.10;;
17052;SDS011;8643;48.824;11.422;2023-02-12T11:25:29;31.77;;;14.37;;
17052;SDS011;8643;48.824;11.422;2023-02-12T11:28:02;31.20;;;14.53;;
17052;SDS011;8643;48.824;11.422;2023-02-12T11:30:47;32.57;;;14.57;;
17052;SDS011;8643;48.824;11.422;2023-02-12T11:33:26;30.17;;;15.03;;
17052;SDS011;8643;48.824;11.422;2023-02-12T11:35:59;28.40;;;14.43;;
17052;SDS011;8643;48.824;11.422;2023-02-12T11:38:35;29.53;;;14.70;;
17052;SDS011;8643;48.824;11.422;2023-02-12T11:41:20;31.47;;;14.27;;
17052;SDS011;8643;48.824;11.422;2023-02-12T11:43:59;28.13;;;12.97;;
17052;SDS011;8643;48.824;11.422;2023-02-12T11:46:35;31.63;;;14.33;;
17052;SDS011;8643;48.824;11.422;2023-02-12T11:49:04;29.57;;;13.80;;
17052;SDS011;8643;48.824;11.422;2023-02-12T11:51:34;30.13;;;13.63;;
17052;SDS011;8643;48.824;11.422;2023-02-12T11:54:04;26.80;;;12.43;;
17052;SDS011;8643;48.824;11.422;2023-02-12T11:56:40;27.83;;;13.17;;
17052;SDS011;8643;48.824;11.422;2023-02-12T11:59:19;22.97;;;11.97;;
17052;SDS011;8643;48.824;11.422;2023-02-12T12:01:58;24.77;;;12.20;;
17052;SDS011;8643;48.824;11.422;2023-02-12T12:04:43;27.43;;;13.53;;
17052;SDS011;8643;48.824;11.422;2023-02-12T12:07:19;29.03;;;13.10;;
17052;SDS011;8643;48.824;11.422;2023-02-12T12:09:55;31.80;;;14.03;;
17052;SDS011;8643;48.824;11.422;2023-02-12T12:12:35;29.47;;;14.53;;
17052;SDS011;8643;48.824;11.422;2023-02-12T12:15:10;27.50;;;14.10;;
17052;SDS011;8643;48.824;11.422;2023-02-12T12:18:08;27.37;;;13.00;;
17052;SDS011;8643;48.824;11.422;2023-02-12T12:21:08;29.57;;;14.13;;
17052;SDS011;8643;48.824;11.422;2023-02-12T12:23:48;30.30;;;14.03;;
17052;SDS011;8643;48.824;11.422;2023-02-12T12:26:24;32.03;;;15.80;;
17052;SDS011;8643;48.824;11.422;2023-02-12T12:28:59;32.90;;;15.73;;
17052;SDS011;8643;48.824;11.422;2023-02-12T12:31:38;32.23;;;15.60;;
17052;SDS011;8643;48.824;11.422;2023-02-12T12:34:11;29.63;;;14.93;;
17052;SDS011;8643;48.824;11.422;2023-02-12T12:40:01;34.07;;;16.70;;
17052;SDS011;8643;48.824;11.422;2023-02-12T12:49:03;28.87;;;15.60;;
17052;SDS011;8643;48.824;11.422;2023-02-12T12:51:59;31.57;;;15.97;;
17052;SDS011;8643;48.824;11.422;2023-02-12T12:55:02;31.20;;;16.35;;
17052;SDS011;8643;48.824;11.422;2023-02-12T12:57:55;29.33;;;15.98;;
17052;SDS011;8643;48.824;11.422;2023-02-12T13:00:40;29.58;;;15.55;;
17052;SDS011;8643;48.824;11.422;2023-02-12T13:03:35;29.25;;;16.10;;
17052;SDS011;8643;48.824;11.422;2023-02-12T13:06:55;25.25;;;14.48;;
17052;SDS011;8643;48.824;11.422;2023-02-12T13:09:44;25.98;;;14.85;;
17052;SDS011;8643;48.824;11.422;2023-02-12T13:15:31;28.13;;;14.55;;
17052;SDS011;8643;48.824;11.422;2023-02-12T13:18:10;29.02;;;15.10;;
17052;SDS011;8643;48.824;11.422;2023-02-12T13:20:55;30.90;;;15.82;;
17052;SDS011;8643;48.824;11.422;2023-02-12T13:23:35;32.80;;;16.25;;
17052;SDS011;8643;48.824;11.422;2023-02-12T13:26:14;27.92;;;15.63;;
17052;SDS011;8643;48.824;11.422;2023-02-12T13:28:53;31.70;;;16.00;;
17052;SDS011;8643;48.824;11.422;2023-02-12T13:31:30;27.95;;;15.32;;
17052;SDS011;8643;48.824;11.422;2023-02-12T13:34:12;29.45;;;15.35;;
17052;SDS011;8643;48.824;11.422;2023-02-12T13:36:47;30.83;;;15.82;;
17052;SDS011;8643;48.824;11.422;2023-02-12T13:39:21;29.80;;;15.88;;
17052;SDS011;8643;48.824;11.422;2023-02-12T13:42:02;30.57;;;15.50;;
17052;SDS011;8643;48.824;11.422;2023-02-12T13:44:49;26.50;;;14.30;;
17052;SDS011;8643;48.824;11.422;2023-02-12T13:47:29;28.97;;;15.17;;
17052;SDS011;8643;48.824;11.422;2023-02-12T13:50:17;24.47;;;12.80;;
17052;SDS011;8643;48.824;11.422;2023-02-12T13:53:10;27.47;;;14.00;;
17052;SDS011;8643;48.824;11.422;2023-02-12T13:55:57;26.40;;;13.90;;
17052;SDS011;8643;48.824;11.422;2023-02-12T13:58:38;24.87;;;13.20;;
17052;SDS011;8643;48.824;11.422;2023-02-12T14:01:34;24.40;;;13.40;;
17052;SDS011;8643;48.824;11.422;2023-02-12T14:07:01;25.00;;;12.93;;
17052;SDS011;8643;48.824;11.422;2023-02-12T14:09:35;21.53;;;11.73;;
17052;SDS011;8643;48.824;11.422;2023-02-12T14:12:08;22.50;;;12.80;;
17052;SDS011;8643;48.824;11.422;2023-02-12T14:14:43;26.07;;;13.10;;
17052;SDS011;8643;48.824;11.422;2023-02-12T14:20:24;21.50;;;11.68;;
17052;SDS011;8643;48.824;11.422;2023-02-12T14:25:59;24.00;;;12.60;;
17052;SDS011;8643;48.824;11.422;2023-02-12T14:28:40;20.55;;;11.98;;
17052;SDS011;8643;48.824;11.422;2023-02-12T14:37:31;22.58;;;13.10;;
17052;SDS011;8643;48.824;11.422;2023-02-12T14:43:24;24.87;;;13.43;;
17052;SDS011;8643;48.824;11.422;2023-02-12T14:49:17;27.93;;;13.83;;
17052;SDS011;8643;48.824;11.422;2023-02-12T14:51:53;23.70;;;13.37;;
17052;SDS011;8643;48.824;11.422;2023-02-12T14:54:31;27.77;;;13.83;;
17052;SDS011;8643;48.824;11.422;2023-02-12T14:57:08;26.37;;;14.37;;
17052;SDS011;8643;48.824;11.422;2023-02-12T14:59:55;26.20;;;13.53;;
17052;SDS011;8643;48.824;11.422;2023-02-12T15:02:30;27.17;;;13.27;;
17052;SDS011;8643;48.824;11.422;2023-02-12T15:05:03;29.47;;;15.50;;
17052;SDS011;8643;48.824;11.422;2023-02-12T15:07:43;27.77;;;14.20;;
17052;SDS011;8643;48.824;11.422;2023-02-12T15:10:18;27.33;;;13.70;;
17052;SDS011;8643;48.824;11.422;2023-02-12T15:12:51;28.40;;;14.40;;
17052;SDS011;8643;48.824;11.422;2023-02-12T15:15:31;28.30;;;13.57;;
17052;SDS011;8643;48.824;11.422;2023-02-12T15:18:07;27.33;;;14.17;;
17052;SDS011;8643;48.824;11.422;2023-02-12T15:20:47;24.13;;;12.70;;
17052;SDS011;8643;48.824;11.422;2023-02-12T15:23:29;26.80;;;13.27;;
17052;SDS011;8643;48.824;11.422;2023-02-12T15:26:02;26.47;;;13.33;;
17052;SDS011;8643;48.824;11.422;2023-02-12T15:28:38;23.70;;;12.97;;
17052;SDS011;8643;48.824;11.422;2023-02-12T15:31:13;27.40;;;13.70;;
17052;SDS011;8643;48.824;11.422;2023-02-12T15:33:45;25.67;;;12.93;;
17052;SDS011;8643;48.824;11.422;2023-02-12T15:36:21;29.60;;;14.77;;
17052;SDS011;8643;48.824;11.422;2023-02-12T15:38:53;29.13;;;14.77;;
17052;SDS011;8643;48.824;11.422;2023-02-12T15:41:28;30.43;;;15.87;;
17052;SDS011;8643;48.824;11.422;2023-02-12T15:44:17;30.90;;;15.67;;
17052;SDS011;8643;48.824;11.422;2023-02-12T15:47:01;30.70;;;15.23;;
17052;SDS011;8643;48.824;11.422;2023-02-12T15:49:39;37.87;;;17.40;;